sensor_id;sensor_type;location;lat;lon;timestamp;temperature;humidity
23259;DHT22;11798;51.528;7.240;2022-08-30T00:00:42;17.70;99.90
23259;DHT22;11798;51.528;7.240;2022-08-30T00:03:26;17.70;99.90
23259;DHT22;11798;51.528;7.240;2022-08-30T00:05:52;17.70;99.90
23259;DHT22;11798;51.528;7.240;2022-08-30T00:08:17;17.70;99.90
23259;DHT22;11798;51.528;7.240;2022-08-30T00:10:43;17.80;99.90
23259;DHT22;11798;51.528;7.240;2022-08-30T00:13:09;17.80;99.90
23259;DHT22;11798;51.528;7.240;2022-08-30T00:15:37;17.80;99.90
23259;DHT22;11798;51.528;7.240;2022-08-30T00:18:02;17.70;99.90
23259;DHT22;11798;51.528;7.240;2022-08-30T00:20:29;17.70;99.90
23259;DHT22;11798;51.528;7.240;2022-08-30T00:22:55;17.70;99.90
23259;DHT22;11798;51.528;7.240;2022-08-30T00:25:21;17.70;99.90
23259;DHT22;11798;51.528;7.240;2022-08-30T00:27:46;17.70;99.90
23259;DHT22;11798;51.528;7.240;2022-08-30T00:30:13;17.70;99.90
23259;DHT22;11798;51.528;7.240;2022-08-30T00:32:39;17.70;99.90
23259;DHT22;11798;51.528;7.240;2022-08-30T00:35:05;17.70;99.90
23259;DHT22;11798;51.528;7.240;2022-08-30T00:37:31;17.70;99.90
23259;DHT22;11798;51.528;7.240;2022-08-30T00:39:56;17.70;99.90
23259;DHT22;11798;51.528;7.240;2022-08-30T00:42:22;17.60;99.90
23259;DHT22;11798;51.528;7.240;2022-08-30T00:44:47;17.60;99.90
23259;DHT22;11798;51.528;7.240;2022-08-30T00:47:13;17.70;99.90
23259;DHT22;11798;51.528;7.240;2022-08-30T00:49:40;17.60;99.90
23259;DHT22;11798;51.528;7.240;2022-08-30T00:52:06;17.60;99.90
23259;DHT22;11798;51.528;7.240;2022-08-30T00:54:32;17.60;99.90
23259;DHT22;11798;51.528;7.240;2022-08-30T00:56:58;17.60;99.90
23259;DHT22;11798;51.528;7.240;2022-08-30T00:59:23;17.50;99.90
23259;DHT22;11798;51.528;7.240;2022-08-30T01:01:50;17.50;99.90
23259;DHT22;11798;51.528;7.240;2022-08-30T01:04:15;17.50;99.90
23259;DHT22;11798;51.528;7.240;2022-08-30T01:06:44;17.50;99.90
23259;DHT22;11798;51.528;7.240;2022-08-30T01:09:10;17.50;99.90
23259;DHT22;11798;51.528;7.240;2022-08-30T01:11:36;17.50;99.90
23259;DHT22;11798;51.528;7.240;2022-08-30T01:14:02;17.60;99.90
23259;DHT22;11798;51.528;7.240;2022-08-30T01:16:29;17.60;99.90
23259;DHT22;11798;51.528;7.240;2022-08-30T01:18:56;17.60;99.90
23259;DHT22;11798;51.528;7.240;2022-08-30T01:21:23;17.50;99.90
23259;DHT22;11798;51.528;7.240;2022-08-30T01:23:52;17.50;99.90
23259;DHT22;11798;51.528;7.240;2022-08-30T01:26:20;17.50;99.90
23259;DHT22;11798;51.528;7.240;2022-08-30T01:28:46;17.50;99.90
23259;DHT22;11798;51.528;7.240;2022-08-30T01:31:13;17.50;99.90
23259;DHT22;11798;51.528;7.240;2022-08-30T01:33:39;17.50;99.90
23259;DHT22;11798;51.528;7.240;2022-08-30T01:36:06;17.50;99.90
23259;DHT22;11798;51.528;7.240;2022-08-30T01:38:36;17.50;99.90
23259;DHT22;11798;51.528;7.240;2022-08-30T01:44:06;17.50;99.90
23259;DHT22;11798;51.528;7.240;2022-08-30T01:46:33;17.50;99.90
23259;DHT22;11798;51.528;7.240;2022-08-30T01:49:01;17.40;99.90
23259;DHT22;11798;51.528;7.240;2022-08-30T01:51:28;17.50;99.90
23259;DHT22;11798;51.528;7.240;2022-08-30T01:53:54;17.40;99.90
23259;DHT22;11798;51.528;7.240;2022-08-30T01:56:20;17.40;99.90
23259;DHT22;11798;51.528;7.240;2022-08-30T01:58:46;17.40;99.90
23259;DHT22;11798;51.528;7.240;2022-08-30T02:01:12;17.40;99.90
23259;DHT22;11798;51.528;7.240;2022-08-30T02:03:39;17.40;99.90
23259;DHT22;11798;51.528;7.240;2022-08-30T02:06:05;17.50;99.90
23259;DHT22;11798;51.528;7.240;2022-08-30T02:08:31;17.40;99.90
23259;DHT22;11798;51.528;7.240;2022-08-30T02:10:57;17.40;99.90
23259;DHT22;11798;51.528;7.240;2022-08-30T02:13:24;17.50;99.90
23259;DHT22;11798;51.528;7.240;2022-08-30T02:15:49;17.50;99.90
23259;DHT22;11798;51.528;7.240;2022-08-30T02:18:15;17.40;99.90
23259;DHT22;11798;51.528;7.240;2022-08-30T02:20:40;17.40;99.90
23259;DHT22;11798;51.528;7.240;2022-08-30T02:23:06;17.40;99.90
23259;DHT22;11798;51.528;7.240;2022-08-30T02:25:31;17.30;99.90
23259;DHT22;11798;51.528;7.240;2022-08-30T02:27:57;17.20;99.90
23259;DHT22;11798;51.528;7.240;2022-08-30T02:30:22;17.20;99.90
23259;DHT22;11798;51.528;7.240;2022-08-30T02:32:48;17.20;99.90
23259;DHT22;11798;51.528;7.240;2022-08-30T02:35:13;17.20;99.90
23259;DHT22;11798;51.528;7.240;2022-08-30T02:37:39;17.10;99.90
23259;DHT22;11798;51.528;7.240;2022-08-30T02:40:05;17.00;99.90
23259;DHT22;11798;51.528;7.240;2022-08-30T02:42:32;17.10;99.90
23259;DHT22;11798;51.528;7.240;2022-08-30T02:44:57;17.10;99.90
23259;DHT22;11798;51.528;7.240;2022-08-30T02:47:23;17.10;99.90
23259;DHT22;11798;51.528;7.240;2022-08-30T02:49:48;17.00;99.90
23259;DHT22;11798;51.528;7.240;2022-08-30T02:52:14;17.00;99.90
23259;DHT22;11798;51.528;7.240;2022-08-30T02:54:39;17.00;99.90
23259;DHT22;11798;51.528;7.240;2022-08-30T02:57:05;16.90;99.90
23259;DHT22;11798;51.528;7.240;2022-08-30T02:59:31;16.90;99.90
23259;DHT22;11798;51.528;7.240;2022-08-30T03:01:57;16.90;99.90
23259;DHT22;11798;51.528;7.240;2022-08-30T03:04:23;16.90;99.90
23259;DHT22;11798;51.528;7.240;2022-08-30T03:06:48;16.90;99.90
23259;DHT22;11798;51.528;7.240;2022-08-30T03:09:14;16.80;99.90
23259;DHT22;11798;51.528;7.240;2022-08-30T03:11:39;16.80;99.90
23259;DHT22;11798;51.528;7.240;2022-08-30T03:14:06;16.80;99.90
23259;DHT22;11798;51.528;7.240;2022-08-30T03:16:31;16.70;99.90
23259;DHT22;11798;51.528;7.240;2022-08-30T03:18:57;16.70;99.90
23259;DHT22;11798;51.528;7.240;2022-08-30T03:21:22;16.60;99.90
23259;DHT22;11798;51.528;7.240;2022-08-30T03:23:48;16.70;99.90
23259;DHT22;11798;51.528;7.240;2022-08-30T03:26:13;16.60;99.90
23259;DHT22;11798;51.528;7.240;2022-08-30T03:28:40;16.60;99.90
23259;DHT22;11798;51.528;7.240;2022-08-30T03:31:06;16.50;99.90
23259;DHT22;11798;51.528;7.240;2022-08-30T03:33:33;16.40;99.90
23259;DHT22;11798;51.528;7.240;2022-08-30T03:35:58;16.40;99.90
23259;DHT22;11798;51.528;7.240;2022-08-30T03:38:24;16.40;99.90
23259;DHT22;11798;51.528;7.240;2022-08-30T03:40:50;16.40;99.90
23259;DHT22;11798;51.528;7.240;2022-08-30T03:43:15;16.40;99.90
23259;DHT22;11798;51.528;7.240;2022-08-30T03:45:41;16.30;99.90
23259;DHT22;11798;51.528;7.240;2022-08-30T03:48:07;16.30;99.90
23259;DHT22;11798;51.528;7.240;2022-08-30T03:50:32;16.30;99.90
23259;DHT22;11798;51.528;7.240;2022-08-30T03:52:59;16.30;99.90
23259;DHT22;11798;51.528;7.240;2022-08-30T03:55:26;16.30;99.90
23259;DHT22;11798;51.528;7.240;2022-08-30T03:57:52;16.30;99.90
23259;DHT22;11798;51.528;7.240;2022-08-30T04:00:18;16.30;99.90
23259;DHT22;11798;51.528;7.240;2022-08-30T04:02:44;16.30;99.90
23259;DHT22;11798;51.528;7.240;2022-08-30T04:05:09;16.30;99.90
23259;DHT22;11798;51.528;7.240;2022-08-30T04:07:35;16.30;99.90
23259;DHT22;11798;51.528;7.240;2022-08-30T04:10:02;16.40;99.90
23259;DHT22;11798;51.528;7.240;2022-08-30T04:12:27;16.40;99.90
23259;DHT22;11798;51.528;7.240;2022-08-30T04:14:53;16.40;99.90
23259;DHT22;11798;51.528;7.240;2022-08-30T04:17:18;16.30;99.90
23259;DHT22;11798;51.528;7.240;2022-08-30T04:19:44;16.20;99.90
23259;DHT22;11798;51.528;7.240;2022-08-30T04:22:09;16.20;99.90
23259;DHT22;11798;51.528;7.240;2022-08-30T04:24:35;16.20;99.90
23259;DHT22;11798;51.528;7.240;2022-08-30T04:27:02;16.10;99.90
23259;DHT22;11798;51.528;7.240;2022-08-30T04:29:28;16.20;99.90
23259;DHT22;11798;51.528;7.240;2022-08-30T04:31:53;16.10;99.90
23259;DHT22;11798;51.528;7.240;2022-08-30T04:34:19;16.10;99.90
23259;DHT22;11798;51.528;7.240;2022-08-30T04:36:44;16.10;99.90
23259;DHT22;11798;51.528;7.240;2022-08-30T04:39:10;16.00;99.90
23259;DHT22;11798;51.528;7.240;2022-08-30T04:41:35;15.90;99.90
23259;DHT22;11798;51.528;7.240;2022-08-30T04:44:02;15.90;99.90
23259;DHT22;11798;51.528;7.240;2022-08-30T04:46:28;15.90;99.90
23259;DHT22;11798;51.528;7.240;2022-08-30T04:48:53;15.90;99.90
23259;DHT22;11798;51.528;7.240;2022-08-30T04:51:19;15.90;99.90
23259;DHT22;11798;51.528;7.240;2022-08-30T04:53:44;15.80;99.90
23259;DHT22;11798;51.528;7.240;2022-08-30T04:56:14;15.80;99.90
23259;DHT22;11798;51.528;7.240;2022-08-30T04:58:41;15.80;99.90
23259;DHT22;11798;51.528;7.240;2022-08-30T05:01:10;15.60;99.90
23259;DHT22;11798;51.528;7.240;2022-08-30T05:03:36;15.60;99.90
23259;DHT22;11798;51.528;7.240;2022-08-30T05:06:01;15.70;99.90
23259;DHT22;11798;51.528;7.240;2022-08-30T05:08:27;15.70;99.90
23259;DHT22;11798;51.528;7.240;2022-08-30T05:10:52;15.60;99.90
23259;DHT22;11798;51.528;7.240;2022-08-30T05:13:18;15.70;99.90
23259;DHT22;11798;51.528;7.240;2022-08-30T05:15:45;15.60;99.90
23259;DHT22;11798;51.528;7.240;2022-08-30T05:18:10;15.60;99.90
23259;DHT22;11798;51.528;7.240;2022-08-30T05:20:36;15.60;99.90
23259;DHT22;11798;51.528;7.240;2022-08-30T05:23:02;15.60;99.90
23259;DHT22;11798;51.528;7.240;2022-08-30T05:25:29;15.60;99.90
23259;DHT22;11798;51.528;7.240;2022-08-30T05:27:55;15.60;99.90
23259;DHT22;11798;51.528;7.240;2022-08-30T05:30:21;15.60;99.90
23259;DHT22;11798;51.528;7.240;2022-08-30T05:32:47;15.60;99.90
23259;DHT22;11798;51.528;7.240;2022-08-30T05:35:13;15.50;99.90
23259;DHT22;11798;51.528;7.240;2022-08-30T05:37:39;15.50;99.90
23259;DHT22;11798;51.528;7.240;2022-08-30T05:40:05;15.60;99.90
23259;DHT22;11798;51.528;7.240;2022-08-30T05:42:31;15.50;99.90
23259;DHT22;11798;51.528;7.240;2022-08-30T05:44:57;15.60;99.90
23259;DHT22;11798;51.528;7.240;2022-08-30T05:47:22;15.60;99.90
23259;DHT22;11798;51.528;7.240;2022-08-30T05:49:48;15.50;99.90
23259;DHT22;11798;51.528;7.240;2022-08-30T05:52:14;15.50;99.90
23259;DHT22;11798;51.528;7.240;2022-08-30T05:54:45;15.50;99.90
23259;DHT22;11798;51.528;7.240;2022-08-30T05:57:15;15.60;99.90
23259;DHT22;11798;51.528;7.240;2022-08-30T05:59:40;15.70;99.90
23259;DHT22;11798;51.528;7.240;2022-08-30T06:02:06;15.70;99.90
23259;DHT22;11798;51.528;7.240;2022-08-30T06:04:32;15.70;99.90
23259;DHT22;11798;51.528;7.240;2022-08-30T06:06:57;15.70;99.90
23259;DHT22;11798;51.528;7.240;2022-08-30T06:09:23;15.70;99.90
23259;DHT22;11798;51.528;7.240;2022-08-30T06:11:48;15.70;99.90
23259;DHT22;11798;51.528;7.240;2022-08-30T06:14:14;15.80;99.90
23259;DHT22;11798;51.528;7.240;2022-08-30T06:16:40;15.80;99.90
23259;DHT22;11798;51.528;7.240;2022-08-30T06:19:06;15.90;99.90
23259;DHT22;11798;51.528;7.240;2022-08-30T06:21:33;15.90;99.90
23259;DHT22;11798;51.528;7.240;2022-08-30T06:23:59;16.00;99.90
23259;DHT22;11798;51.528;7.240;2022-08-30T06:26:25;16.00;99.90
23259;DHT22;11798;51.528;7.240;2022-08-30T06:28:51;16.00;99.90
23259;DHT22;11798;51.528;7.240;2022-08-30T06:31:18;16.10;99.90
23259;DHT22;11798;51.528;7.240;2022-08-30T06:33:43;16.20;99.90
23259;DHT22;11798;51.528;7.240;2022-08-30T06:36:10;16.30;99.90
23259;DHT22;11798;51.528;7.240;2022-08-30T06:38:36;16.40;99.90
23259;DHT22;11798;51.528;7.240;2022-08-30T06:41:06;16.50;99.90
23259;DHT22;11798;51.528;7.240;2022-08-30T06:43:32;16.50;99.90
23259;DHT22;11798;51.528;7.240;2022-08-30T06:46:01;16.50;99.90
23259;DHT22;11798;51.528;7.240;2022-08-30T06:48:27;16.60;99.90
23259;DHT22;11798;51.528;7.240;2022-08-30T06:50:53;16.60;99.90
23259;DHT22;11798;51.528;7.240;2022-08-30T06:53:19;16.70;99.90
23259;DHT22;11798;51.528;7.240;2022-08-30T06:55:44;16.70;99.90
23259;DHT22;11798;51.528;7.240;2022-08-30T06:58:10;16.70;99.90
23259;DHT22;11798;51.528;7.240;2022-08-30T07:00:35;16.70;99.90
23259;DHT22;11798;51.528;7.240;2022-08-30T07:03:01;16.70;99.90
23259;DHT22;11798;51.528;7.240;2022-08-30T07:05:26;16.80;99.90
23259;DHT22;11798;51.528;7.240;2022-08-30T07:07:52;16.80;99.90
23259;DHT22;11798;51.528;7.240;2022-08-30T07:10:18;16.70;99.90
23259;DHT22;11798;51.528;7.240;2022-08-30T07:12:46;16.70;99.90
23259;DHT22;11798;51.528;7.240;2022-08-30T07:15:11;16.80;99.90
23259;DHT22;11798;51.528;7.240;2022-08-30T07:17:37;16.80;99.90
23259;DHT22;11798;51.528;7.240;2022-08-30T07:20:21;16.80;99.90
23259;DHT22;11798;51.528;7.240;2022-08-30T07:22:46;16.90;99.90
23259;DHT22;11798;51.528;7.240;2022-08-30T07:25:13;17.00;99.90
23259;DHT22;11798;51.528;7.240;2022-08-30T07:27:38;17.10;99.90
23259;DHT22;11798;51.528;7.240;2022-08-30T07:30:05;17.10;99.90
23259;DHT22;11798;51.528;7.240;2022-08-30T07:32:31;17.10;99.90
23259;DHT22;11798;51.528;7.240;2022-08-30T07:34:56;17.20;99.90
23259;DHT22;11798;51.528;7.240;2022-08-30T07:37:22;17.30;99.90
23259;DHT22;11798;51.528;7.240;2022-08-30T07:39:47;17.30;99.90
23259;DHT22;11798;51.528;7.240;2022-08-30T07:42:13;17.40;99.90
23259;DHT22;11798;51.528;7.240;2022-08-30T07:44:38;17.50;99.90
23259;DHT22;11798;51.528;7.240;2022-08-30T07:47:04;17.60;99.90
23259;DHT22;11798;51.528;7.240;2022-08-30T07:49:29;17.60;99.90
23259;DHT22;11798;51.528;7.240;2022-08-30T07:51:55;17.60;99.90
23259;DHT22;11798;51.528;7.240;2022-08-30T07:54:21;17.60;99.90
23259;DHT22;11798;51.528;7.240;2022-08-30T07:56:46;17.80;99.90
23259;DHT22;11798;51.528;7.240;2022-08-30T07:59:13;17.90;99.90
23259;DHT22;11798;51.528;7.240;2022-08-30T08:01:38;17.90;99.90
23259;DHT22;11798;51.528;7.240;2022-08-30T08:04:04;17.90;99.90
23259;DHT22;11798;51.528;7.240;2022-08-30T08:06:29;18.00;99.90
23259;DHT22;11798;51.528;7.240;2022-08-30T08:08:55;18.20;99.90
23259;DHT22;11798;51.528;7.240;2022-08-30T08:11:23;18.20;99.90
23259;DHT22;11798;51.528;7.240;2022-08-30T08:13:49;18.30;99.90
23259;DHT22;11798;51.528;7.240;2022-08-30T08:16:15;18.40;99.90
23259;DHT22;11798;51.528;7.240;2022-08-30T08:18:40;18.50;99.90
23259;DHT22;11798;51.528;7.240;2022-08-30T08:21:06;18.60;99.90
23259;DHT22;11798;51.528;7.240;2022-08-30T08:23:31;18.70;99.90
23259;DHT22;11798;51.528;7.240;2022-08-30T08:25:57;18.80;99.90
23259;DHT22;11798;51.528;7.240;2022-08-30T08:28:23;18.70;99.90
23259;DHT22;11798;51.528;7.240;2022-08-30T08:30:48;18.80;99.90
23259;DHT22;11798;51.528;7.240;2022-08-30T08:33:14;18.90;99.90
23259;DHT22;11798;51.528;7.240;2022-08-30T08:35:40;19.00;99.90
23259;DHT22;11798;51.528;7.240;2022-08-30T08:38:06;19.10;99.90
23259;DHT22;11798;51.528;7.240;2022-08-30T08:40:34;19.20;99.90
23259;DHT22;11798;51.528;7.240;2022-08-30T08:43:13;19.20;99.90
23259;DHT22;11798;51.528;7.240;2022-08-30T08:48:13;19.30;99.90
23259;DHT22;11798;51.528;7.240;2022-08-30T08:50:45;19.30;99.90
23259;DHT22;11798;51.528;7.240;2022-08-30T08:53:32;19.30;99.90
23259;DHT22;11798;51.528;7.240;2022-08-30T08:56:05;19.40;99.90
23259;DHT22;11798;51.528;7.240;2022-08-30T08:58:44;19.40;99.90
23259;DHT22;11798;51.528;7.240;2022-08-30T09:01:11;19.40;99.90
23259;DHT22;11798;51.528;7.240;2022-08-30T09:03:37;19.60;99.90
23259;DHT22;11798;51.528;7.240;2022-08-30T09:06:19;19.70;99.90
23259;DHT22;11798;51.528;7.240;2022-08-30T09:08:46;19.80;99.90
23259;DHT22;11798;51.528;7.240;2022-08-30T09:11:11;19.80;99.90
23259;DHT22;11798;51.528;7.240;2022-08-30T09:13:41;19.90;99.90
23259;DHT22;11798;51.528;7.240;2022-08-30T09:16:06;19.90;99.90
23259;DHT22;11798;51.528;7.240;2022-08-30T09:18:42;19.90;99.90
23259;DHT22;11798;51.528;7.240;2022-08-30T09:21:08;20.00;99.90
23259;DHT22;11798;51.528;7.240;2022-08-30T09:23:34;20.00;99.90
23259;DHT22;11798;51.528;7.240;2022-08-30T09:26:05;20.10;99.90
23259;DHT22;11798;51.528;7.240;2022-08-30T09:28:32;20.20;99.90
23259;DHT22;11798;51.528;7.240;2022-08-30T09:31:16;20.30;99.90
23259;DHT22;11798;51.528;7.240;2022-08-30T09:36:26;20.40;99.90
23259;DHT22;11798;51.528;7.240;2022-08-30T09:38:56;20.40;99.90
23259;DHT22;11798;51.528;7.240;2022-08-30T09:41:39;20.40;99.90
23259;DHT22;11798;51.528;7.240;2022-08-30T09:46:42;20.60;99.90
23259;DHT22;11798;51.528;7.240;2022-08-30T09:49:20;20.70;99.90
23259;DHT22;11798;51.528;7.240;2022-08-30T09:51:54;20.70;99.90
23259;DHT22;11798;51.528;7.240;2022-08-30T09:54:25;20.80;99.90
23259;DHT22;11798;51.528;7.240;2022-08-30T09:57:38;20.90;99.90
23259;DHT22;11798;51.528;7.240;2022-08-30T09:59:55;20.90;99.90
23259;DHT22;11798;51.528;7.240;2022-08-30T10:05:00;21.20;99.90
23259;DHT22;11798;51.528;7.240;2022-08-30T10:07:27;21.30;99.90
23259;DHT22;11798;51.528;7.240;2022-08-30T10:10:02;21.30;99.90
23259;DHT22;11798;51.528;7.240;2022-08-30T10:12:31;21.50;99.90
23259;DHT22;11798;51.528;7.240;2022-08-30T10:17:47;21.60;99.90
23259;DHT22;11798;51.528;7.240;2022-08-30T10:23:10;21.60;99.90
23259;DHT22;11798;51.528;7.240;2022-08-30T10:25:50;21.70;99.90
23259;DHT22;11798;51.528;7.240;2022-08-30T10:30:47;21.80;99.90
23259;DHT22;11798;51.528;7.240;2022-08-30T10:33:17;22.00;99.90
23259;DHT22;11798;51.528;7.240;2022-08-30T10:35:46;22.00;99.90
23259;DHT22;11798;51.528;7.240;2022-08-30T10:40:40;22.00;99.90
23259;DHT22;11798;51.528;7.240;2022-08-30T10:45:52;22.20;99.90
23259;DHT22;11798;51.528;7.240;2022-08-30T10:48:20;22.20;99.90
23259;DHT22;11798;51.528;7.240;2022-08-30T10:50:49;22.20;99.90
23259;DHT22;11798;51.528;7.240;2022-08-30T10:53:15;22.20;99.90
23259;DHT22;11798;51.528;7.240;2022-08-30T10:55:52;22.30;99.90
23259;DHT22;11798;51.528;7.240;2022-08-30T10:58:19;22.40;99.90
23259;DHT22;11798;51.528;7.240;2022-08-30T11:00:59;22.50;99.90
23259;DHT22;11798;51.528;7.240;2022-08-30T11:06:14;22.60;99.90
23259;DHT22;11798;51.528;7.240;2022-08-30T11:13:53;22.60;99.90
23259;DHT22;11798;51.528;7.240;2022-08-30T11:16:19;22.60;99.90
23259;DHT22;11798;51.528;7.240;2022-08-30T11:18:57;22.70;99.90
23259;DHT22;11798;51.528;7.240;2022-08-30T11:24:04;22.70;99.90
23259;DHT22;11798;51.528;7.240;2022-08-30T11:31:54;22.90;99.90
23259;DHT22;11798;51.528;7.240;2022-08-30T11:37:04;23.10;99.90
23259;DHT22;11798;51.528;7.240;2022-08-30T11:39:42;23.20;99.90
23259;DHT22;11798;51.528;7.240;2022-08-30T11:44:49;23.20;99.90
23259;DHT22;11798;51.528;7.240;2022-08-30T11:50:03;23.20;99.90
23259;DHT22;11798;51.528;7.240;2022-08-30T11:55:00;23.20;99.90
23259;DHT22;11798;51.528;7.240;2022-08-30T12:07:59;23.30;99.90
23259;DHT22;11798;51.528;7.240;2022-08-30T12:10:42;23.40;99.90
23259;DHT22;11798;51.528;7.240;2022-08-30T12:13:08;23.60;99.90
23259;DHT22;11798;51.528;7.240;2022-08-30T12:18:19;23.60;99.90
23259;DHT22;11798;51.528;7.240;2022-08-30T12:20:53;23.60;99.90
23259;DHT22;11798;51.528;7.240;2022-08-30T12:23:23;23.80;99.90
23259;DHT22;11798;51.528;7.240;2022-08-30T12:26:08;23.70;99.90
23259;DHT22;11798;51.528;7.240;2022-08-30T12:28:33;23.70;99.90
23259;DHT22;11798;51.528;7.240;2022-08-30T12:31:05;23.70;99.90
23259;DHT22;11798;51.528;7.240;2022-08-30T12:33:33;23.70;99.90
23259;DHT22;11798;51.528;7.240;2022-08-30T12:36:02;23.70;99.90
23259;DHT22;11798;51.528;7.240;2022-08-30T12:38:28;23.70;99.90
23259;DHT22;11798;51.528;7.240;2022-08-30T12:40:59;23.80;99.90
23259;DHT22;11798;51.528;7.240;2022-08-30T12:45:50;24.00;99.90
23259;DHT22;11798;51.528;7.240;2022-08-30T12:48:17;23.90;99.90
23259;DHT22;11798;51.528;7.240;2022-08-30T12:53:09;24.00;99.90
23259;DHT22;11798;51.528;7.240;2022-08-30T12:55:48;24.00;99.90
23259;DHT22;11798;51.528;7.240;2022-08-30T12:58:14;23.90;99.90
23259;DHT22;11798;51.528;7.240;2022-08-30T13:00:41;23.90;99.90
23259;DHT22;11798;51.528;7.240;2022-08-30T13:05:48;23.90;99.90
23259;DHT22;11798;51.528;7.240;2022-08-30T13:08:21;24.10;99.90
23259;DHT22;11798;51.528;7.240;2022-08-30T13:10:57;24.20;99.90
23259;DHT22;11798;51.528;7.240;2022-08-30T13:16:05;24.40;99.90
23259;DHT22;11798;51.528;7.240;2022-08-30T13:18:31;24.50;99.90
23259;DHT22;11798;51.528;7.240;2022-08-30T13:23:34;24.40;99.90
23259;DHT22;11798;51.528;7.240;2022-08-30T13:25:59;24.50;99.90
23259;DHT22;11798;51.528;7.240;2022-08-30T13:28:25;24.60;99.90
23259;DHT22;11798;51.528;7.240;2022-08-30T13:30:51;24.40;99.90
23259;DHT22;11798;51.528;7.240;2022-08-30T13:33:17;24.30;99.90
23259;DHT22;11798;51.528;7.240;2022-08-30T13:35:43;24.40;99.90
23259;DHT22;11798;51.528;7.240;2022-08-30T13:38:08;24.40;99.90
23259;DHT22;11798;51.528;7.240;2022-08-30T13:40:34;24.50;99.90
23259;DHT22;11798;51.528;7.240;2022-08-30T13:43:00;24.50;99.90
23259;DHT22;11798;51.528;7.240;2022-08-30T13:45:25;24.40;99.90
23259;DHT22;11798;51.528;7.240;2022-08-30T13:47:51;24.40;99.90
23259;DHT22;11798;51.528;7.240;2022-08-30T13:50:16;24.40;99.90
23259;DHT22;11798;51.528;7.240;2022-08-30T13:52:43;24.40;99.90
23259;DHT22;11798;51.528;7.240;2022-08-30T13:55:09;24.50;99.90
23259;DHT22;11798;51.528;7.240;2022-08-30T13:57:34;24.60;99.90
23259;DHT22;11798;51.528;7.240;2022-08-30T14:00:00;24.60;99.90
23259;DHT22;11798;51.528;7.240;2022-08-30T14:02:26;24.60;99.90
23259;DHT22;11798;51.528;7.240;2022-08-30T14:04:52;24.60;99.90
23259;DHT22;11798;51.528;7.240;2022-08-30T14:07:17;24.60;99.90
23259;DHT22;11798;51.528;7.240;2022-08-30T14:09:43;24.40;99.90
23259;DHT22;11798;51.528;7.240;2022-08-30T14:12:08;24.50;99.90
23259;DHT22;11798;51.528;7.240;2022-08-30T14:14:34;24.60;99.90
23259;DHT22;11798;51.528;7.240;2022-08-30T14:17:00;24.50;99.90
23259;DHT22;11798;51.528;7.240;2022-08-30T14:19:25;24.60;99.90
23259;DHT22;11798;51.528;7.240;2022-08-30T14:21:50;24.60;99.90
23259;DHT22;11798;51.528;7.240;2022-08-30T14:24:16;24.40;99.90
23259;DHT22;11798;51.528;7.240;2022-08-30T14:26:44;24.30;99.90
23259;DHT22;11798;51.528;7.240;2022-08-30T14:29:12;24.40;99.90
23259;DHT22;11798;51.528;7.240;2022-08-30T14:31:39;24.60;99.90
23259;DHT22;11798;51.528;7.240;2022-08-30T14:34:05;24.60;99.90
23259;DHT22;11798;51.528;7.240;2022-08-30T14:36:31;24.60;99.90
23259;DHT22;11798;51.528;7.240;2022-08-30T14:38:56;24.60;99.90
23259;DHT22;11798;51.528;7.240;2022-08-30T14:41:22;24.60;99.90
23259;DHT22;11798;51.528;7.240;2022-08-30T14:43:49;24.50;99.90
23259;DHT22;11798;51.528;7.240;2022-08-30T14:46:14;24.60;99.90
23259;DHT22;11798;51.528;7.240;2022-08-30T14:48:40;24.60;99.90
23259;DHT22;11798;51.528;7.240;2022-08-30T14:51:15;24.60;99.90
23259;DHT22;11798;51.528;7.240;2022-08-30T14:53:41;24.70;99.90
23259;DHT22;11798;51.528;7.240;2022-08-30T14:56:08;24.80;99.90
23259;DHT22;11798;51.528;7.240;2022-08-30T14:58:34;24.90;99.90
23259;DHT22;11798;51.528;7.240;2022-08-30T15:01:00;25.00;99.90
23259;DHT22;11798;51.528;7.240;2022-08-30T15:03:25;25.10;99.90
23259;DHT22;11798;51.528;7.240;2022-08-30T15:05:51;25.30;99.90
23259;DHT22;11798;51.528;7.240;2022-08-30T15:08:17;25.40;99.90
23259;DHT22;11798;51.528;7.240;2022-08-30T15:10:42;25.50;99.90
23259;DHT22;11798;51.528;7.240;2022-08-30T15:13:08;25.40;99.90
23259;DHT22;11798;51.528;7.240;2022-08-30T15:15:34;25.40;99.90
23259;DHT22;11798;51.528;7.240;2022-08-30T15:17:59;25.50;99.90
23259;DHT22;11798;51.528;7.240;2022-08-30T15:20:25;25.70;99.90
23259;DHT22;11798;51.528;7.240;2022-08-30T15:22:51;25.80;99.90
23259;DHT22;11798;51.528;7.240;2022-08-30T15:25:17;26.20;99.90
23259;DHT22;11798;51.528;7.240;2022-08-30T15:27:42;26.00;99.90
23259;DHT22;11798;51.528;7.240;2022-08-30T15:30:08;26.10;99.90
23259;DHT22;11798;51.528;7.240;2022-08-30T15:32:34;26.50;99.90
23259;DHT22;11798;51.528;7.240;2022-08-30T15:34:59;26.80;99.90
23259;DHT22;11798;51.528;7.240;2022-08-30T15:37:25;26.80;99.90
23259;DHT22;11798;51.528;7.240;2022-08-30T15:39:51;26.90;99.90
23259;DHT22;11798;51.528;7.240;2022-08-30T15:42:17;26.60;99.90
23259;DHT22;11798;51.528;7.240;2022-08-30T15:44:49;26.50;99.90
23259;DHT22;11798;51.528;7.240;2022-08-30T15:47:15;26.20;99.90
23259;DHT22;11798;51.528;7.240;2022-08-30T15:49:42;25.90;99.90
23259;DHT22;11798;51.528;7.240;2022-08-30T15:52:08;25.70;99.90
23259;DHT22;11798;51.528;7.240;2022-08-30T15:54:33;25.60;99.90
23259;DHT22;11798;51.528;7.240;2022-08-30T15:56:59;25.60;99.90
23259;DHT22;11798;51.528;7.240;2022-08-30T15:59:25;25.50;99.90
23259;DHT22;11798;51.528;7.240;2022-08-30T16:01:50;25.50;99.90
23259;DHT22;11798;51.528;7.240;2022-08-30T16:04:16;25.30;99.90
23259;DHT22;11798;51.528;7.240;2022-08-30T16:06:42;25.30;99.90
23259;DHT22;11798;51.528;7.240;2022-08-30T16:09:07;25.10;99.90
23259;DHT22;11798;51.528;7.240;2022-08-30T16:11:33;25.20;99.90
23259;DHT22;11798;51.528;7.240;2022-08-30T16:13:59;25.00;99.90
23259;DHT22;11798;51.528;7.240;2022-08-30T16:16:24;24.80;99.90
23259;DHT22;11798;51.528;7.240;2022-08-30T16:18:50;24.70;99.90
23259;DHT22;11798;51.528;7.240;2022-08-30T16:21:17;24.60;99.90
23259;DHT22;11798;51.528;7.240;2022-08-30T16:23:43;24.40;99.90
23259;DHT22;11798;51.528;7.240;2022-08-30T16:26:09;24.30;99.90
23259;DHT22;11798;51.528;7.240;2022-08-30T16:28:36;24.10;99.90
23259;DHT22;11798;51.528;7.240;2022-08-30T16:31:02;24.00;99.90
23259;DHT22;11798;51.528;7.240;2022-08-30T16:33:28;24.00;99.90
23259;DHT22;11798;51.528;7.240;2022-08-30T16:35:53;24.00;99.90
23259;DHT22;11798;51.528;7.240;2022-08-30T16:38:20;24.00;99.90
23259;DHT22;11798;51.528;7.240;2022-08-30T16:40:46;24.00;99.90
23259;DHT22;11798;51.528;7.240;2022-08-30T16:43:11;24.10;99.90
23259;DHT22;11798;51.528;7.240;2022-08-30T16:45:37;24.00;99.90
23259;DHT22;11798;51.528;7.240;2022-08-30T16:48:03;23.80;99.90